Terminal Aerodrome Forecast
Issued by NWS

Home | Current Version | Previous Version | Text Only | Print | Product List | Glossary On
Versions: 1 2 3 4 5 6 7 8 9 10 11 12 13 14 15 16 17 18 19 20 21 22
000
FTUS41 KPBZ 011100
TAFDUJ
TAF
KDUJ 011120Z 0112/0212 23004KT 3SM BR OVC008
     FM011400 22006KT P6SM OVC012
     FM011600 21007KT P6SM OVC025
     FM011700 21008KT P6SM BKN035
     FM021000 24006KT P6SM VCSH BKN035=

USA.gov is the U.S. government's official web portal to all federal, state and local government web resources and services.